Time;durP1;ratioP1;P1;durP2;ratioP2;P2;SDS_P1;SDS_P2;PMS_P1;PMS_P2;Temp;Humidity;BMP_temperature;BMP_pressure;BME280_temperature;BME280_humidity;BME280_pressure;Samples;Min_cycle;Max_cycle;Signal;HPM_P1;HPM_P2
2022/11/26 00:00:39;;;;;;;9.17;3.40;;;;;;;6.65;92.58;96437.31;4936139;29;20185;-81
2022/11/26 00:03:05;;;;;;;12.10;3.50;;;;;;;6.63;92.97;96441.75;4935051;29;20210;-81
2022/11/26 00:05:31;;;;;;;11.77;3.03;;;;;;;6.65;92.30;96441.66;4919967;29;20189;-81
2022/11/26 00:07:57;;;;;;;6.80;3.40;;;;;;;6.72;91.53;96448.91;4935558;29;20197;-81
2022/11/26 00:10:28;;;;;;;9.23;3.43;;;;;;;6.72;91.70;96451.47;4920062;29;20186;-81
2022/11/26 00:12:54;;;;;;;14.63;3.90;;;;;;;6.61;92.44;96450.50;4917589;29;20217;-81
2022/11/26 00:15:28;;;;;;;8.70;3.80;;;;;;;6.64;92.50;96456.31;4920251;29;20549;-80
2022/11/26 00:17:57;;;;;;;11.13;3.27;;;;;;;6.65;92.50;96459.72;4951810;29;20197;-80
2022/11/26 00:20:31;;;;;;;14.90;3.27;;;;;;;6.62;92.82;96462.47;4919221;29;20555;-81
2022/11/26 00:23:00;;;;;;;6.57;3.23;;;;;;;6.67;92.57;96463.03;4940276;29;20205;-81
2022/11/26 00:25:28;;;;;;;6.90;3.03;;;;;;;6.65;92.74;96463.13;4924021;29;20182;-81
2022/11/26 00:27:55;;;;;;;13.83;5.70;;;;;;;6.66;92.69;96474.28;4920848;29;20205;-82
2022/11/26 00:30:26;;;;;;;9.67;3.53;;;;;;;6.65;92.88;96485.53;4922052;29;20190;-81
2022/11/26 00:32:53;;;;;;;9.47;3.20;;;;;;;6.64;92.90;96483.88;4938148;29;20776;-81
2022/11/26 00:35:19;;;;;;;13.30;3.33;;;;;;;6.61;93.16;96486.63;4932743;29;20178;-81
2022/11/26 00:37:51;;;;;;;12.17;3.03;;;;;;;6.63;92.94;96498.53;4937740;29;20231;-81
2022/11/26 00:40:18;;;;;;;9.27;2.77;;;;;;;6.64;92.94;96491.63;4918558;29;20558;-81
2022/11/26 00:42:44;;;;;;;9.83;2.60;;;;;;;6.62;92.96;96498.63;4938246;29;20555;-82
2022/11/26 00:45:17;;;;;;;9.20;3.07;;;;;;;6.59;93.33;96498.81;4936427;29;20189;-80
2022/11/26 00:47:42;;;;;;;6.70;2.90;;;;;;;6.60;93.38;96500.47;4934232;29;20210;-80
2022/11/26 00:50:12;;;;;;;7.13;2.77;;;;;;;6.61;93.12;96502.13;4938531;29;20677;-81
2022/11/26 00:52:38;;;;;;;8.67;2.43;;;;;;;6.61;93.06;96515.03;4936485;29;20194;-81
2022/11/26 00:55:08;;;;;;;7.07;2.33;;;;;;;6.59;93.13;96519.47;4936307;29;20569;-80
2022/11/26 00:57:33;;;;;;;9.90;2.93;;;;;;;6.59;93.14;96520.28;4948968;29;20237;-81
2022/11/26 00:59:59;;;;;;;8.03;2.90;;;;;;;6.58;92.91;96520.41;4920325;29;20189;-81
2022/11/26 01:02:24;;;;;;;9.07;3.27;;;;;;;6.52;93.14;96522.44;4918492;29;20266;-80
2022/11/26 01:04:49;;;;;;;10.37;3.50;;;;;;;6.58;92.84;96528.97;4917580;29;20194;-80
2022/11/26 01:07:14;;;;;;;11.13;3.17;;;;;;;6.49;93.09;96520.06;4935379;29;20262;-80
2022/11/26 01:09:40;;;;;;;16.17;3.90;;;;;;;6.52;92.85;96532.75;4920213;29;20705;-79
2022/11/26 01:12:12;;;;;;;14.73;3.77;;;;;;;6.53;92.97;96534.41;4935650;29;20195;-81
2022/11/26 01:14:37;;;;;;;13.10;3.30;;;;;;;6.58;92.59;96528.97;4935416;29;20189;-81
2022/11/26 01:17:04;;;;;;;6.63;2.93;;;;;;;6.59;92.62;96540.94;4949160;29;20194;-80
2022/11/26 01:19:30;;;;;;;10.60;3.93;;;;;;;6.49;93.13;96539.88;4919564;29;20202;-81
2022/11/26 01:21:55;;;;;;;15.20;3.70;;;;;;;6.44;92.95;96545.31;4936120;29;20181;-80
2022/11/26 01:24:21;;;;;;;11.77;3.73;;;;;;;6.48;93.64;96544.22;4935530;29;20206;-80
2022/11/26 01:26:46;;;;;;;13.63;4.13;;;;;;;6.48;93.29;96544.22;4934941;29;20206;-81
2022/11/26 01:29:18;;;;;;;9.80;3.77;;;;;;;6.53;93.12;96542.16;4936181;29;20721;-81
2022/11/26 01:31:43;;;;;;;20.63;4.43;;;;;;;6.50;93.20;96547.53;4932930;29;20189;-81
2022/11/26 01:34:12;;;;;;;13.50;3.93;;;;;;;6.49;93.39;96542.47;4935487;29;20218;-80
2022/11/26 01:36:39;;;;;;;17.47;3.57;;;;;;;6.37;94.60;96551.81;4919067;29;20274;-82
2022/11/26 01:39:09;;;;;;;12.93;3.37;;;;;;;6.42;94.32;96554.94;4932923;29;20564;-82
2022/11/26 01:41:59;;;;;;;8.03;3.40;;;;;;;6.40;94.16;96559.34;4919252;29;20189;-81
2022/11/26 01:44:27;;;;;;;11.47;3.20;;;;;;;6.40;94.03;96561.13;4940318;29;20190;-81
2022/11/26 01:46:53;;;;;;;14.57;3.80;;;;;;;6.44;93.78;96558.22;4934474;29;20205;-81
2022/11/26 01:49:32;;;;;;;11.20;3.97;;;;;;;6.47;93.40;96564.97;4919557;29;20186;-81
2022/11/26 01:52:17;;;;;;;13.60;4.53;;;;;;;6.42;94.14;96570.41;4935588;29;20212;-81
2022/11/26 01:54:43;;;;;;;14.73;4.00;;;;;;;6.42;93.82;96579.91;4936901;29;20182;-81
2022/11/26 01:57:16;;;;;;;12.87;3.27;;;;;;;6.46;93.56;96574.47;4922403;29;20181;-81
2022/11/26 01:59:42;;;;;;;12.53;3.50;;;;;;;6.38;94.35;96573.28;4938602;29;20205;-81
2022/11/26 02:02:08;;;;;;;14.50;3.50;;;;;;;6.38;93.67;96571.53;4937866;29;20188;-81
2022/11/26 02:04:39;;;;;;;9.30;3.20;;;;;;;6.42;93.78;96569.59;4922319;29;20284;-79
2022/11/26 02:07:04;;;;;;;13.13;3.30;;;;;;;6.43;93.31;96577.22;4921560;29;20205;-80
2022/11/26 02:09:30;;;;;;;9.90;3.47;;;;;;;6.39;93.62;96580.09;4938226;29;20200;-81
2022/11/26 02:11:55;;;;;;;15.03;4.27;;;;;;;6.46;93.44;96577.03;4922328;29;20662;-81
2022/11/26 02:14:27;;;;;;;10.73;3.20;;;;;;;6.51;92.92;96577.56;4938018;29;20227;-81
2022/11/26 02:17:09;;;;;;;15.10;3.33;;;;;;;6.50;93.39;96581.06;4922082;29;20293;-81
2022/11/26 02:20:05;;;;;;;12.77;4.20;;;;;;;6.49;93.20;96584.59;4936094;29;20297;-80
2022/11/26 02:22:48;;;;;;;9.03;3.10;;;;;;;6.52;93.33;96591.28;4953116;28;20206;-81
2022/11/26 02:25:28;;;;;;;9.00;3.03;;;;;;;6.52;93.02;96602.44;4953332;29;20185;-81
2022/11/26 02:28:05;;;;;;;10.33;3.73;;;;;;;6.50;93.30;96603.47;4935637;29;20197;-82
2022/11/26 02:30:35;;;;;;;10.77;3.47;;;;;;;6.49;94.21;96612.13;4918489;29;20194;-81
2022/11/26 02:33:15;;;;;;;10.43;3.43;;;;;;;6.45;94.02;96605.53;4937550;29;20220;-82
2022/11/26 02:35:45;;;;;;;10.80;4.03;;;;;;;6.44;94.34;96615.00;4936718;29;20654;-81
2022/11/26 02:38:29;;;;;;;12.73;4.13;;;;;;;6.50;94.07;96618.94;4930923;29;20178;-82
2022/11/26 02:40:54;;;;;;;15.57;4.80;;;;;;;6.45;94.22;96614.09;4936475;29;20265;-81
2022/11/26 02:43:20;;;;;;;16.13;4.13;;;;;;;6.40;94.72;96621.28;4936958;29;20301;-80
2022/11/26 02:45:48;;;;;;;12.63;4.03;;;;;;;6.41;94.77;96625.50;4920986;29;20193;-81
2022/11/26 02:48:16;;;;;;;15.00;4.20;;;;;;;6.34;95.74;96624.25;4937309;29;20205;-81
2022/11/26 02:50:45;;;;;;;15.77;5.27;;;;;;;6.33;95.83;96627.75;4920564;29;20198;-80
2022/11/26 02:53:12;;;;;;;15.13;5.13;;;;;;;6.34;96.29;96626.00;4935949;29;20659;-81
2022/11/26 02:55:41;;;;;;;14.20;5.07;;;;;;;6.33;96.60;96632.06;4952444;29;20241;-81
2022/11/26 02:58:07;;;;;;;11.80;4.80;;;;;;;6.33;97.00;96632.91;4936744;29;20186;-80
2022/11/26 03:00:33;;;;;;;20.27;5.07;;;;;;;6.31;97.23;96637.34;4920431;29;20248;-80
2022/11/26 03:03:07;;;;;;;12.83;5.17;;;;;;;6.30;97.37;96640.84;4920844;29;20217;-80
2022/11/26 03:05:34;;;;;;;17.23;5.93;;;;;;;6.31;97.65;96642.50;4935500;29;20200;-79
2022/11/26 03:08:00;;;;;;;14.90;6.43;;;;;;;6.25;98.13;96642.88;4925279;29;20209;-80
2022/11/26 03:10:27;;;;;;;17.23;6.17;;;;;;;6.29;97.89;96639.19;4943996;29;20346;-81
2022/11/26 03:12:53;;;;;;;17.67;6.97;;;;;;;6.30;97.91;96637.44;4923582;29;20238;-81
2022/11/26 03:15:18;;;;;;;19.40;7.33;;;;;;;6.24;98.10;96634.31;4922434;29;20206;-80
2022/11/26 03:17:44;;;;;;;23.33;7.77;;;;;;;6.24;98.09;96639.47;4939135;29;20192;-80
2022/11/26 03:20:09;;;;;;;23.23;7.60;;;;;;;6.30;97.56;96650.34;4922693;29;20199;-80
2022/11/26 03:22:34;;;;;;;16.93;7.00;;;;;;;6.23;98.03;96648.13;4922615;29;20257;-79
2022/11/26 03:25:00;;;;;;;17.67;7.33;;;;;;;6.24;97.60;96652.34;4935551;29;20249;-80
2022/11/26 03:27:25;;;;;;;16.03;6.70;;;;;;;6.23;98.06;96660.19;4938258;29;20224;-81
2022/11/26 03:29:50;;;;;;;16.17;7.00;;;;;;;6.15;99.00;96660.66;4933950;29;20198;-82
2022/11/26 03:32:16;;;;;;;18.37;7.40;;;;;;;6.18;99.10;96655.34;4922050;29;20724;-81
2022/11/26 03:34:41;;;;;;;20.23;7.70;;;;;;;6.21;99.25;96657.72;4932968;29;20666;-80
2022/11/26 03:37:07;;;;;;;16.73;7.40;;;;;;;6.24;99.71;96659.25;4922104;29;20189;-80
2022/11/26 03:39:32;;;;;;;20.10;8.23;;;;;;;6.26;99.33;96662.56;4921000;29;20196;-80
2022/11/26 03:41:58;;;;;;;17.53;7.70;;;;;;;6.31;98.89;96664.88;4937693;29;20256;-81
2022/11/26 03:44:23;;;;;;;18.07;7.93;;;;;;;6.34;98.75;96665.50;4937277;29;20221;-80
2022/11/26 03:46:48;;;;;;;16.93;7.40;;;;;;;6.25;100.00;96663.50;4919225;29;20211;-79
2022/11/26 03:49:14;;;;;;;18.00;6.97;;;;;;;6.30;100.00;96663.22;4937762;29;20189;-80
2022/11/26 03:51:39;;;;;;;14.43;6.50;;;;;;;6.30;100.00;96669.22;4921015;29;20196;-80
2022/11/26 03:54:04;;;;;;;17.47;7.10;;;;;;;6.29;100.00;96677.88;4937632;29;20209;-79
2022/11/26 03:56:29;;;;;;;19.47;6.77;;;;;;;6.28;100.00;96673.66;4936746;29;20190;-79
2022/11/26 03:58:55;;;;;;;20.43;8.03;;;;;;;6.26;100.00;96672.88;4937147;29;20233;-79
2022/11/26 04:01:20;;;;;;;23.30;7.67;;;;;;;6.25;100.00;96663.50;4937181;29;20194;-79
2022/11/26 04:03:45;;;;;;;14.43;7.33;;;;;;;6.31;100.00;96670.88;4936794;29;20697;-79
2022/11/26 04:06:11;;;;;;;19.73;7.63;;;;;;;6.27;100.00;96676.31;4920185;29;20201;-80
2022/11/26 04:08:36;;;;;;;19.33;7.30;;;;;;;6.27;100.00;96663.41;4916810;29;20301;-81
2022/11/26 04:11:01;;;;;;;18.53;7.43;;;;;;;6.29;100.00;96667.56;4920427;29;20204;-80
2022/11/26 04:13:26;;;;;;;20.83;8.40;;;;;;;6.29;100.00;96670.16;4920311;29;20694;-80
2022/11/26 04:15:52;;;;;;;18.13;7.60;;;;;;;6.29;100.00;96661.56;4935219;29;20186;-79
2022/11/26 04:18:17;;;;;;;21.07;8.43;;;;;;;6.28;100.00;96677.97;4936139;29;20189;-80
2022/11/26 04:20:42;;;;;;;20.40;8.30;;;;;;;6.29;100.00;96669.31;4920279;29;20617;-81
2022/11/26 04:23:08;;;;;;;17.50;7.90;;;;;;;6.29;100.00;96679.63;4920100;29;20733;-80
2022/11/26 04:25:33;;;;;;;17.17;8.93;;;;;;;6.29;100.00;96677.88;4919302;29;20197;-81
2022/11/26 04:27:58;;;;;;;24.57;9.60;;;;;;;6.25;100.00;96672.06;4935740;29;20264;-81
2022/11/26 04:30:24;;;;;;;19.93;9.53;;;;;;;6.29;100.00;96670.16;4918261;29;20202;-80
2022/11/26 04:32:49;;;;;;;18.97;9.23;;;;;;;6.22;100.00;96676.59;4920730;29;20232;-81
2022/11/26 04:35:14;;;;;;;20.60;9.50;;;;;;;6.23;100.00;96673.91;4919224;29;20202;-80
2022/11/26 04:37:40;;;;;;;20.83;8.93;;;;;;;6.23;100.00;96679.06;4917373;29;20266;-80
2022/11/26 04:40:06;;;;;;;20.20;10.33;;;;;;;6.26;100.00;96678.06;4935862;29;20190;-80
2022/11/26 04:42:31;;;;;;;18.53;9.37;;;;;;;6.28;100.00;96670.25;4935776;29;20720;-80
2022/11/26 04:44:56;;;;;;;16.60;9.77;;;;;;;6.26;100.00;96675.47;4918782;29;20193;-80
2022/11/26 04:47:21;;;;;;;23.97;9.03;;;;;;;6.14;100.00;96676.22;4916383;29;20581;-81
2022/11/26 04:49:47;;;;;;;23.30;9.47;;;;;;;6.00;100.00;96671.88;4935501;29;20241;-81
2022/11/26 04:52:12;;;;;;;25.20;10.17;;;;;;;5.99;100.00;96667.66;4916845;29;20193;-79
2022/11/26 04:54:37;;;;;;;24.37;10.50;;;;;;;5.89;100.00;96666.53;4934894;29;20204;-80
2022/11/26 04:57:03;;;;;;;27.80;10.80;;;;;;;5.85;100.00;96671.03;4935222;29;20613;-79
2022/11/26 04:59:28;;;;;;;16.33;8.97;;;;;;;5.76;100.00;96668.19;4919046;29;20751;-81
2022/11/26 05:01:53;;;;;;;21.50;9.17;;;;;;;5.71;100.00;96671.03;4919492;29;20221;-79
2022/11/26 05:04:19;;;;;;;16.00;8.50;;;;;;;5.73;100.00;96673.50;4934886;29;20213;-81
2022/11/26 05:06:44;;;;;;;17.90;8.53;;;;;;;5.67;100.00;96680.69;4918297;29;20213;-80
2022/11/26 05:09:09;;;;;;;17.23;8.47;;;;;;;5.60;100.00;96686.28;4918485;29;20194;-80
2022/11/26 05:11:35;;;;;;;15.37;7.63;;;;;;;5.50;100.00;96682.59;4918891;29;20204;-79
2022/11/26 05:14:00;;;;;;;17.57;7.83;;;;;;;5.40;100.00;96683.13;4935139;29;20745;-80
2022/11/26 05:16:25;;;;;;;13.23;8.13;;;;;;;5.29;100.00;96684.63;4934359;29;20201;-80
2022/11/26 05:18:51;;;;;;;13.80;8.80;;;;;;;5.20;100.00;96688.56;4917482;29;20214;-79
2022/11/26 05:21:16;;;;;;;10.40;8.13;;;;;;;5.10;100.00;96690.00;4934666;29;20611;-80
2022/11/26 05:23:41;;;;;;;19.87;9.20;;;;;;;5.01;100.00;96686.19;4933493;29;20217;-79
2022/11/26 05:26:06;;;;;;;17.80;8.47;;;;;;;4.94;100.00;96696.91;4929043;29;20252;-80
2022/11/26 05:28:32;;;;;;;16.90;7.63;;;;;;;4.90;100.00;96700.59;4917982;29;20219;-80
2022/11/26 05:30:59;;;;;;;12.90;7.73;;;;;;;4.81;100.00;96705.31;4922175;29;20186;-80
2022/11/26 05:33:24;;;;;;;14.90;8.30;;;;;;;4.73;100.00;96707.50;4922373;29;20221;-80
2022/11/26 05:35:49;;;;;;;15.50;7.97;;;;;;;4.62;100.00;96712.41;4921582;29;20178;-80
2022/11/26 05:38:15;;;;;;;16.43;8.17;;;;;;;4.57;100.00;96711.78;4937274;29;20187;-80
2022/11/26 05:40:40;;;;;;;12.97;7.43;;;;;;;4.55;100.00;96713.63;4937314;29;20193;-80
2022/11/26 05:43:05;;;;;;;13.73;7.77;;;;;;;4.53;100.00;96716.28;4919502;29;20295;-80
2022/11/26 05:45:31;;;;;;;17.00;6.70;;;;;;;4.46;100.00;96711.56;4930174;29;20193;-80
2022/11/26 05:47:56;;;;;;;18.37;8.40;;;;;;;4.39;100.00;96716.19;4920147;29;20217;-79
2022/11/26 05:50:21;;;;;;;22.27;8.17;;;;;;;4.40;100.00;96720.41;4920499;29;20280;-80
2022/11/26 05:52:47;;;;;;;13.10;7.57;;;;;;;4.31;100.00;96723.47;4937760;29;20299;-80
2022/11/26 05:55:12;;;;;;;12.87;7.50;;;;;;;4.38;100.00;96726.56;4948788;29;20201;-80
2022/11/26 05:57:37;;;;;;;9.57;7.03;;;;;;;4.42;100.00;96728.06;4930006;29;20185;-80
2022/11/26 06:00:03;;;;;;;14.07;7.03;;;;;;;4.45;100.00;96727.91;4940966;29;20189;-80
2022/11/26 06:02:29;;;;;;;17.47;7.70;;;;;;;4.47;100.00;96726.91;4924700;29;20273;-80
2022/11/26 06:04:54;;;;;;;10.93;6.40;;;;;;;4.48;100.00;96731.13;4937900;29;20194;-81
2022/11/26 06:07:19;;;;;;;11.40;6.70;;;;;;;4.47;100.00;96732.03;4923204;29;20218;-81
2022/11/26 06:09:44;;;;;;;13.97;7.23;;;;;;;4.45;100.00;96738.19;4924088;29;20224;-80
2022/11/26 06:12:10;;;;;;;13.03;7.27;;;;;;;4.39;100.00;96739.31;4923761;29;20185;-82
2022/11/26 06:14:35;;;;;;;25.47;7.93;;;;;;;4.34;100.00;96740.50;4938229;29;20203;-79
2022/11/26 06:17:00;;;;;;;36.20;8.70;;;;;;;4.29;100.00;96737.31;4950024;29;20186;-82
2022/11/26 06:19:26;;;;;;;28.43;8.17;;;;;;;4.17;100.00;96739.63;4939298;29;20224;-80
2022/11/26 06:21:51;;;;;;;19.13;10.27;;;;;;;4.15;100.00;96736.31;4920514;29;20199;-80
2022/11/26 06:24:16;;;;;;;24.70;14.90;;;;;;;4.12;100.00;96733.06;4922541;29;20226;-79
2022/11/26 06:26:41;;;;;;;18.70;10.83;;;;;;;4.04;100.00;96738.59;4922020;29;20200;-80
2022/11/26 06:29:07;;;;;;;18.17;9.57;;;;;;;3.98;100.00;96744.91;4918851;29;20186;-80
2022/11/26 06:31:32;;;;;;;10.93;7.87;;;;;;;3.94;100.00;96750.25;4954624;29;20189;-78
2022/11/26 06:33:58;;;;;;;16.93;7.80;;;;;;;3.87;100.00;96754.88;4937595;29;20225;-80
2022/11/26 06:36:23;;;;;;;9.73;6.27;;;;;;;3.83;100.00;96755.09;4939011;29;20339;-79
2022/11/26 06:38:49;;;;;;;13.53;7.13;;;;;;;3.81;100.00;96754.38;4921737;29;20185;-80
2022/11/26 06:41:14;;;;;;;13.17;7.03;;;;;;;3.79;100.00;96761.28;4935221;29;20193;-81
2022/11/26 06:43:39;;;;;;;12.40;7.40;;;;;;;3.78;100.00;96765.59;4937236;29;20296;-80
2022/11/26 06:46:07;;;;;;;11.00;6.40;;;;;;;3.74;100.00;96776.13;4921038;29;20253;-80
2022/11/26 06:48:34;;;;;;;11.90;6.67;;;;;;;3.72;100.00;96775.38;4937364;29;20206;-79
2022/11/26 06:51:03;;;;;;;10.13;6.37;;;;;;;3.65;100.00;96785.13;4952807;29;20558;-81
2022/11/26 06:53:29;;;;;;;17.27;8.03;;;;;;;3.67;100.00;96784.13;4938209;29;20215;-80
2022/11/26 06:55:58;;;;;;;9.20;7.23;;;;;;;3.74;100.00;96786.41;4920593;29;20565;-80
2022/11/26 06:58:23;;;;;;;14.03;7.77;;;;;;;3.83;100.00;96793.66;4937844;29;20185;-82
2022/11/26 07:00:49;;;;;;;15.47;7.27;;;;;;;3.90;100.00;96787.31;4919832;29;20190;-81
2022/11/26 07:03:14;;;;;;;17.63;8.83;;;;;;;4.04;100.00;96800.28;4935517;29;20224;-81
2022/11/26 07:05:39;;;;;;;16.47;8.77;;;;;;;4.13;100.00;96807.53;4919051;29;20186;-80
2022/11/26 07:08:05;;;;;;;14.63;11.23;;;;;;;4.26;100.00;96803.44;4934548;29;20216;-81
2022/11/26 07:10:30;;;;;;;17.93;8.57;;;;;;;4.33;100.00;96806.53;4935394;29;20192;-80
2022/11/26 07:12:55;;;;;;;15.83;8.20;;;;;;;4.44;100.00;96814.53;4919181;29;20216;-80
2022/11/26 07:15:21;;;;;;;15.00;8.10;;;;;;;4.58;100.00;96811.22;4917897;29;20269;-81
2022/11/26 07:17:46;;;;;;;22.60;9.73;;;;;;;4.60;100.00;96809.41;4950552;29;20181;-81
2022/11/26 07:20:13;;;;;;;16.20;9.63;;;;;;;4.71;100.00;96812.25;4929308;29;20200;-81
2022/11/26 07:22:38;;;;;;;18.70;11.97;;;;;;;4.79;100.00;96812.69;4922727;29;20228;-83
2022/11/26 07:25:03;;;;;;;18.50;12.07;;;;;;;4.95;100.00;96822.16;4916572;29;20660;-81
2022/11/26 07:27:29;;;;;;;17.07;9.90;;;;;;;5.05;100.00;96825.91;4934093;29;20198;-81
2022/11/26 07:29:54;;;;;;;16.03;9.70;;;;;;;5.16;100.00;96826.16;4934764;29;20265;-81
2022/11/26 07:32:19;;;;;;;17.37;9.43;;;;;;;5.22;100.00;96827.56;4918178;29;20267;-80
2022/11/26 07:34:45;;;;;;;13.03;8.60;;;;;;;5.23;100.00;96829.22;4933711;29;20189;-82
2022/11/26 07:37:10;;;;;;;14.03;7.50;;;;;;;5.14;100.00;96830.56;4918950;29;20185;-81
2022/11/26 07:39:35;;;;;;;15.90;7.70;;;;;;;5.16;100.00;96833.88;4912805;29;20197;-79
2022/11/26 07:42:01;;;;;;;13.40;7.07;;;;;;;5.09;100.00;96840.25;4912742;29;20213;-81
2022/11/26 07:44:26;;;;;;;11.97;7.60;;;;;;;5.07;100.00;96848.06;4929872;29;20198;-82
2022/11/26 07:46:51;;;;;;;17.57;6.37;;;;;;;5.10;100.00;96839.34;4931996;29;20555;-80
2022/11/26 07:49:16;;;;;;;18.03;8.70;;;;;;;5.07;100.00;96839.53;4947185;29;20202;-81
2022/11/26 07:51:42;;;;;;;16.30;7.40;;;;;;;5.02;100.00;96846.66;4913436;29;20650;-80
2022/11/26 07:54:07;;;;;;;13.27;6.47;;;;;;;5.10;100.00;96854.78;4911508;29;20268;-80
2022/11/26 07:56:33;;;;;;;10.97;6.30;;;;;;;5.10;100.00;96849.66;4916385;29;20300;-81
2022/11/26 07:58:59;;;;;;;14.03;7.20;;;;;;;5.09;100.00;96850.56;4948966;29;20665;-81
2022/11/26 08:01:27;;;;;;;21.97;7.50;;;;;;;5.05;100.00;96856.81;4932375;29;20189;-82
2022/11/26 08:03:52;;;;;;;13.93;5.80;;;;;;;5.00;100.00;96856.19;4933144;29;20575;-81
2022/11/26 08:06:23;;;;;;;13.53;5.83;;;;;;;5.14;100.00;96860.63;4932609;29;20189;-80
2022/11/26 08:08:48;;;;;;;14.47;5.83;;;;;;;5.14;100.00;96860.63;4909486;29;20206;-80
2022/11/26 08:11:24;;;;;;;17.37;6.50;;;;;;;5.22;100.00;96859.31;4916518;29;20185;-80
2022/11/26 08:13:55;;;;;;;11.53;5.83;;;;;;;5.27;100.00;96861.63;4944405;28;20587;-80
2022/11/26 08:16:20;;;;;;;14.20;6.23;;;;;;;5.32;100.00;96854.47;4913837;29;20192;-81
2022/11/26 08:18:46;;;;;;;10.83;5.87;;;;;;;5.39;99.75;96861.78;4916764;29;20635;-81
2022/11/26 08:21:11;;;;;;;15.47;6.40;;;;;;;5.37;99.28;96862.78;4916768;29;20193;-81
2022/11/26 08:23:37;;;;;;;14.43;6.27;;;;;;;5.34;100.00;96863.78;4916638;29;20292;-81
2022/11/26 08:26:10;;;;;;;14.57;6.10;;;;;;;5.33;100.00;96856.13;4931517;29;20216;-80
2022/11/26 08:28:35;;;;;;;12.93;6.20;;;;;;;5.27;100.00;96859.88;4930045;29;20225;-81
2022/11/26 08:31:03;;;;;;;17.43;5.97;;;;;;;5.47;99.21;96863.09;4929691;29;20189;-81
2022/11/26 08:33:28;;;;;;;15.07;5.70;;;;;;;5.59;98.68;96858.13;4933090;29;20308;-81
2022/11/26 08:35:54;;;;;;;13.93;6.27;;;;;;;5.67;98.33;96855.13;4915963;29;20328;-80
2022/11/26 08:38:19;;;;;;;12.80;5.80;;;;;;;5.72;97.88;96852.25;4912781;29;20665;-81
2022/11/26 08:40:45;;;;;;;11.50;5.80;;;;;;;5.79;97.97;96853.59;4938323;29;20265;-82
2022/11/26 08:43:10;;;;;;;12.70;6.40;;;;;;;5.87;97.46;96856.56;4934684;29;20217;-82
2022/11/26 08:45:35;;;;;;;11.77;6.47;;;;;;;5.92;97.22;96850.28;4941294;29;20201;-83
2022/11/26 08:48:00;;;;;;;21.70;8.33;;;;;;;5.95;96.92;96854.41;4918620;29;20201;-83
2022/11/26 08:50:26;;;;;;;23.47;8.40;;;;;;;6.04;97.17;96859.03;4918797;29;20201;-84
2022/11/26 08:52:51;;;;;;;13.37;6.63;;;;;;;6.10;96.73;96857.88;4919258;29;20224;-84
2022/11/26 08:55:16;;;;;;;11.80;6.87;;;;;;;6.19;96.40;96859.94;4935188;29;20193;-82
2022/11/26 08:57:41;;;;;;;15.03;6.53;;;;;;;6.23;96.04;96857.06;4919259;29;20182;-82
2022/11/26 09:00:07;;;;;;;13.43;5.80;;;;;;;6.30;95.94;96864.47;4934243;29;20273;-83
2022/11/26 09:02:33;;;;;;;11.27;5.10;;;;;;;6.29;94.87;96862.81;4939228;28;20229;-84
2022/11/26 09:04:58;;;;;;;10.10;5.13;;;;;;;6.40;95.53;96863.81;4917049;29;20197;-84
2022/11/26 09:07:23;;;;;;;14.03;5.23;;;;;;;6.43;94.35;96866.22;4936857;29;20202;-82
2022/11/26 09:09:48;;;;;;;13.60;7.40;;;;;;;6.54;94.60;96868.19;4936883;29;20268;-82
2022/11/26 09:12:14;;;;;;;8.23;4.43;;;;;;;6.56;93.59;96863.75;4921033;29;20190;-84
2022/11/26 09:14:40;;;;;;;14.10;5.03;;;;;;;6.59;93.85;96865.31;4931918;29;20197;-84
2022/11/26 09:17:06;;;;;;;9.43;4.30;;;;;;;6.69;93.34;96866.44;4917874;29;20182;-83
2022/11/26 09:19:31;;;;;;;6.60;3.83;;;;;;;6.70;92.76;96868.91;4923174;29;20244;-83
2022/11/26 09:22:00;;;;;;;9.60;4.30;;;;;;;6.75;92.41;96871.22;4933216;29;20280;-82
2022/11/26 09:24:25;;;;;;;14.47;5.00;;;;;;;6.73;90.82;96870.50;4934927;29;20205;-81
2022/11/26 09:26:50;;;;;;;8.70;4.53;;;;;;;6.85;91.46;96874.91;4951178;29;20186;-81
2022/11/26 09:29:18;;;;;;;11.13;3.83;;;;;;;6.86;90.25;96880.91;4919484;29;20274;-82
2022/11/26 09:31:45;;;;;;;10.63;3.93;;;;;;;6.96;89.34;96890.59;4940334;29;20544;-83
2022/11/26 09:34:10;;;;;;;7.83;3.83;;;;;;;6.92;88.89;96885.72;4938877;29;20201;-81
2022/11/26 09:36:36;;;;;;;10.33;3.60;;;;;;;6.96;87.78;96895.75;4938237;29;20181;-82
2022/11/26 09:39:02;;;;;;;11.77;3.93;;;;;;;7.05;88.46;96890.03;4922554;29;20195;-83
2022/11/26 09:41:46;;;;;;;8.87;3.60;;;;;;;7.16;87.78;96888.56;4939612;29;20209;-82
2022/11/26 09:44:35;;;;;;;8.07;3.67;;;;;;;7.18;87.97;96890.13;4950658;28;20217;-83
2022/11/26 09:47:17;;;;;;;9.37;3.83;;;;;;;7.15;87.36;96889.47;4937144;29;20201;-83
2022/11/26 09:49:55;;;;;;;10.80;4.83;;;;;;;7.17;87.82;96895.38;4952004;29;20589;-82
2022/11/26 09:52:23;;;;;;;8.93;4.13;;;;;;;7.19;88.30;96896.13;4934975;29;20229;-82
2022/11/26 09:54:51;;;;;;;10.83;4.90;;;;;;;7.16;88.33;96901.50;4935716;29;20288;-83
2022/11/26 09:57:34;;;;;;;13.67;4.30;;;;;;;7.15;89.47;96899.78;4938061;29;20182;-82
2022/11/26 10:00:00;;;;;;;11.80;4.27;;;;;;;7.26;88.73;96903.41;4934624;29;20220;-82
2022/11/26 10:02:25;;;;;;;7.93;3.67;;;;;;;7.33;87.93;96904.69;4922705;29;20213;-82
2022/11/26 10:04:51;;;;;;;10.90;3.43;;;;;;;7.40;86.71;96905.13;4938052;29;20710;-82
2022/11/26 10:07:45;;;;;;;10.77;3.70;;;;;;;7.47;86.15;96900.41;4955153;28;20210;-82
2022/11/26 10:10:20;;;;;;;11.43;4.80;;;;;;;7.51;85.62;96901.88;4938081;29;20201;-82
2022/11/26 10:12:50;;;;;;;8.30;4.07;;;;;;;7.47;86.40;96893.47;4940378;29;20208;-83
2022/11/26 10:15:50;;;;;;;7.23;3.70;;;;;;;7.45;86.11;96890.19;4934082;29;20217;-83
2022/11/26 10:18:37;;;;;;;7.07;3.60;;;;;;;7.50;85.09;96898.44;4947156;29;20183;-83
2022/11/26 10:21:22;;;;;;;6.87;3.10;;;;;;;7.59;83.93;96894.47;4941598;29;20192;-83
2022/11/26 10:23:56;;;;;;;7.27;3.30;;;;;;;7.76;83.88;96886.47;4938689;29;20214;-83
2022/11/26 10:26:26;;;;;;;8.47;3.60;;;;;;;7.85;82.54;96890.22;4938075;29;20186;-82
2022/11/26 10:29:10;;;;;;;11.73;3.30;;;;;;;7.80;82.38;96900.06;4937519;29;20214;-82
2022/11/26 10:31:37;;;;;;;7.17;3.27;;;;;;;7.84;82.00;96893.75;4936125;29;20177;-83
2022/11/26 10:34:08;;;;;;;12.30;4.00;;;;;;;7.95;81.48;96891.28;4953155;28;20281;-82
2022/11/26 10:36:38;;;;;;;7.37;3.00;;;;;;;8.02;82.17;96900.31;4935190;29;20281;-81
2022/11/26 10:39:06;;;;;;;6.57;3.33;;;;;;;8.05;80.72;96892.38;4935666;29;20188;-82
2022/11/26 10:41:34;;;;;;;7.07;2.90;;;;;;;8.11;80.13;96893.72;4936079;29;20277;-81
2022/11/26 10:44:34;;;;;;;6.77;2.93;;;;;;;8.32;78.72;96889.75;4948428;28;20723;-82
2022/11/26 10:47:23;;;;;;;10.43;2.93;;;;;;;8.44;76.48;96888.97;4928383;29;20777;-82
2022/11/26 10:49:50;;;;;;;9.30;3.63;;;;;;;8.39;77.01;96891.03;4936873;29;20194;-81
2022/11/26 10:52:19;;;;;;;8.90;2.80;;;;;;;8.58;76.00;96884.66;4920028;29;20198;-82
2022/11/26 10:54:46;;;;;;;10.97;2.93;;;;;;;8.48;75.87;96874.91;4949907;28;20186;-82
2022/11/26 10:57:16;;;;;;;17.67;3.50;;;;;;;8.64;75.82;96882.44;4952192;28;20664;-82
2022/11/26 10:59:50;;;;;;;11.57;3.60;;;;;;;8.63;73.80;96873.03;4921143;29;20269;-81
2022/11/26 11:02:21;;;;;;;11.03;2.97;;;;;;;8.76;74.79;96878.22;4935520;29;20193;-82
2022/11/26 11:04:49;;;;;;;7.40;2.80;;;;;;;8.75;74.94;96869.63;4934221;29;20185;-82
2022/11/26 11:07:36;;;;;;;11.13;3.63;;;;;;;8.61;74.69;96874.06;4931087;29;20217;-82
2022/11/26 11:10:23;;;;;;;7.10;2.83;;;;;;;8.36;75.46;96869.69;4934384;29;20273;-83
2022/11/26 11:13:07;;;;;;;9.97;2.60;;;;;;;8.65;76.29;96876.34;4951065;28;20218;-82
2022/11/26 11:15:34;;;;;;;9.10;3.33;;;;;;;8.71;75.28;96867.34;4952230;29;20193;-81
2022/11/26 11:18:05;;;;;;;7.10;2.90;;;;;;;8.80;75.57;96877.91;4936178;29;20178;-82
2022/11/26 11:20:35;;;;;;;9.77;2.70;;;;;;;8.67;75.22;96881.44;4935516;29;20197;-82
2022/11/26 11:23:05;;;;;;;9.27;2.97;;;;;;;8.54;75.74;96876.22;4920456;29;20240;-82
2022/11/26 11:25:35;;;;;;;8.67;2.73;;;;;;;8.42;75.90;96879.66;4948142;28;20190;-82
2022/11/26 11:28:06;;;;;;;10.07;3.37;;;;;;;8.40;77.04;96872.00;4933751;29;20213;-82
2022/11/26 11:30:35;;;;;;;8.50;3.50;;;;;;;8.18;78.06;96875.13;4931592;29;20228;-81
2022/11/26 11:33:18;;;;;;;7.53;3.73;;;;;;;8.06;78.28;96863.00;4920367;29;20228;-83
2022/11/26 11:35:43;;;;;;;11.00;3.63;;;;;;;7.77;79.76;96866.63;4952515;29;20182;-86